Time;durP1;ratioP1;P1;durP2;ratioP2;P2;SDS_P1;SDS_P2;PMS_P1;PMS_P2;Temp;Humidity;BMP_temperature;BMP_pressure;BME280_temperature;BME280_humidity;BME280_pressure;Samples;Min_cycle;Max_cycle;Signal;HPM_P1;HPM_P2
2023/05/07 00:00:11;;;;;;;2.10;1.73;;;;;;;15.59;100.00;100278.03;4823214;29;20092;-95
2023/05/07 00:02:56;;;;;;;3.55;1.77;;;;;;;15.52;100.00;100270.53;4825331;29;20069;-95
2023/05/07 00:05:31;;;;;;;2.60;2.10;;;;;;;15.85;100.00;100328.78;4901193;23;20040;-94
2023/05/07 00:08:10;;;;;;;3.80;1.92;;;;;;;15.76;100.00;100333.78;4899171;29;20099;-95
2023/05/07 00:11:05;;;;;;;3.20;2.00;;;;;;;15.97;100.00;100370.63;4930908;29;20043;-95
2023/05/07 00:13:53;;;;;;;4.05;2.03;;;;;;;15.96;100.00;100368.94;4938198;29;20131;-95
2023/05/07 00:16:33;;;;;;;2.03;1.80;;;;;;;15.66;100.00;100324.72;5043552;23;20036;-95
2023/05/07 00:19:15;;;;;;;3.05;2.08;;;;;;;15.95;100.00;100359.22;4926704;29;20045;-94
2023/05/07 00:22:06;;;;;;;4.10;2.28;;;;;;;15.69;100.00;100321.84;4910769;29;20196;-94
2023/05/07 00:25:10;;;;;;;3.00;1.92;;;;;;;15.65;100.00;100314.13;4924359;29;20044;-95
2023/05/07 00:28:03;;;;;;;3.22;1.90;;;;;;;15.93;100.00;100361.13;4921348;29;20047;-95
2023/05/07 00:30:35;;;;;;;2.95;2.20;;;;;;;15.90;100.00;100356.84;4896100;29;20120;-95
2023/05/07 00:33:07;;;;;;;2.28;1.83;;;;;;;15.78;100.00;100341.69;4910023;29;20100;-95
2023/05/07 00:36:00;;;;;;;2.83;1.80;;;;;;;15.58;100.00;100304.84;4919406;29;20048;-95
2023/05/07 00:38:38;;;;;;;3.05;1.95;;;;;;;15.34;100.00;100273.50;4893196;29;20037;-96
2023/05/07 00:41:24;;;;;;;3.45;2.17;;;;;;;15.82;100.00;100358.34;4924600;29;20103;-95
2023/05/07 00:44:02;;;;;;;3.08;2.00;;;;;;;15.26;100.00;100275.00;4935673;29;20087;-96
2023/05/07 00:46:38;;;;;;;3.22;2.10;;;;;;;15.81;100.00;100354.81;4923159;29;20048;-93
2023/05/07 00:49:19;;;;;;;3.13;2.00;;;;;;;15.84;100.00;100348.44;4925437;29;20111;-94
2023/05/07 00:51:53;;;;;;;2.90;2.03;;;;;;;15.29;100.00;100262.28;4923138;29;20032;-95
2023/05/07 00:54:33;;;;;;;3.88;1.67;;;;;;;15.85;100.00;100348.31;4918840;29;20052;-96
2023/05/07 00:57:17;;;;;;;2.75;2.10;;;;;;;15.41;100.00;100271.28;4934470;29;20051;-96
2023/05/07 00:59:56;;;;;;;2.45;1.88;;;;;;;15.77;100.00;100340.84;4919110;29;20068;-95
2023/05/07 01:02:31;;;;;;;3.58;2.50;;;;;;;15.75;100.00;100336.56;4923581;29;20068;-94
2023/05/07 01:05:09;;;;;;;3.42;2.05;;;;;;;15.53;100.00;100320.28;4962042;23;20043;-95
2023/05/07 01:07:45;;;;;;;4.18;2.13;;;;;;;15.67;100.00;100339.75;4944747;29;20064;-95
2023/05/07 01:10:16;;;;;;;3.70;2.00;;;;;;;15.23;100.00;100261.88;4962567;29;20059;-95
2023/05/07 01:12:52;;;;;;;4.10;1.90;;;;;;;15.38;100.00;100291.03;4947028;29;20047;-95
2023/05/07 01:15:50;;;;;;;1.92;1.77;;;;;;;15.38;100.00;100296.38;4927019;29;20047;-96
2023/05/07 01:18:35;;;;;;;3.58;1.90;;;;;;;15.69;100.00;100339.66;4956196;29;20056;-96
2023/05/07 01:21:05;;;;;;;3.25;2.17;;;;;;;15.57;100.00;100316.50;4941357;29;20130;-96
2023/05/07 01:23:41;;;;;;;2.75;1.90;;;;;;;15.26;100.00;100273.19;4924574;29;20048;-95
2023/05/07 01:26:19;;;;;;;3.05;2.42;;;;;;;15.52;100.00;100319.44;4941158;29;20052;-96
2023/05/07 01:28:52;;;;;;;2.50;2.22;;;;;;;15.36;100.00;100294.75;4961833;29;20164;-96
2023/05/07 01:31:29;;;;;;;2.42;2.15;;;;;;;15.63;100.00;100332.06;4961130;29;20036;-95
2023/05/07 01:34:04;;;;;;;3.13;2.40;;;;;;;15.63;100.00;100346.28;4958075;29;20094;-96
2023/05/07 01:36:46;;;;;;;3.10;1.98;;;;;;;15.61;100.00;100339.31;4955588;29;20532;-95
2023/05/07 01:39:20;;;;;;;2.95;2.50;;;;;;;15.65;100.00;100347.03;4955307;29;20047;-94
2023/05/07 01:41:49;;;;;;;2.83;2.05;;;;;;;15.69;100.00;100348.53;4959439;29;20066;-94
2023/05/07 01:44:33;;;;;;;3.30;2.20;;;;;;;15.35;100.00;100301.91;4946428;29;20048;-95
2023/05/07 01:47:21;;;;;;;3.08;2.10;;;;;;;15.15;100.00;100248.19;4938981;29;20040;-95
2023/05/07 01:49:56;;;;;;;4.18;2.10;;;;;;;15.67;100.00;100336.25;4944812;29;20115;-94
2023/05/07 01:52:28;;;;;;;3.47;2.10;;;;;;;15.35;100.00;100282.38;4948064;29;20047;-94
2023/05/07 01:54:56;;;;;;;3.33;2.08;;;;;;;15.33;100.00;100279.81;4932866;29;20477;-94
2023/05/07 01:57:38;;;;;;;2.92;2.40;;;;;;;15.69;100.00;100335.19;4948346;29;20095;-95
2023/05/07 02:00:09;;;;;;;4.28;2.60;;;;;;;15.47;100.00;100292.19;4901927;29;20051;-94
2023/05/07 02:02:42;;;;;;;3.10;2.40;;;;;;;15.39;100.00;100278.53;4934274;29;20102;-94
2023/05/07 02:05:14;;;;;;;2.40;2.20;;;;;;;15.47;100.00;100286.00;4949755;29;20119;-94
2023/05/07 02:07:52;;;;;;;5.60;2.50;;;;;;;15.53;100.00;100310.47;4949578;29;20058;-94
2023/05/07 02:10:22;;;;;;;3.30;2.35;;;;;;;15.35;100.00;100290.38;4944138;28;20134;-94
2023/05/07 02:12:52;;;;;;;3.03;2.38;;;;;;;15.58;100.00;100342.22;4946602;28;20071;-95
2023/05/07 02:15:20;;;;;;;3.47;2.42;;;;;;;14.99;100.00;100251.03;4956351;28;20051;-95
2023/05/07 02:18:03;;;;;;;5.15;2.47;;;;;;;14.95;100.00;100255.72;4942663;28;20095;-95
2023/05/07 02:20:31;;;;;;;4.40;2.33;;;;;;;15.46;100.00;100341.19;4945621;29;20028;-95
2023/05/07 02:23:00;;;;;;;2.58;2.20;;;;;;;15.46;100.00;100338.53;4946153;28;20028;-95
2023/05/07 02:25:42;;;;;;;3.95;2.70;;;;;;;15.45;100.00;100347.47;4946591;28;20070;-95
2023/05/07 02:28:13;;;;;;;4.82;2.30;;;;;;;14.88;100.00;100248.25;4945361;29;20126;-95
2023/05/07 02:30:44;;;;;;;4.35;1.90;;;;;;;15.02;100.00;100281.03;5001475;23;20058;-95
2023/05/07 02:33:13;;;;;;;3.33;2.38;;;;;;;15.42;100.00;100347.72;4910819;29;20050;-96
2023/05/07 02:35:45;;;;;;;3.17;2.60;;;;;;;15.41;100.00;100348.69;4926712;29;20164;-96
2023/05/07 02:38:15;;;;;;;5.68;2.72;;;;;;;15.42;100.00;100347.72;5024284;23;20040;-90
2023/05/07 02:40:43;;;;;;;4.28;2.60;;;;;;;15.17;100.00;100302.28;4911866;29;20024;-90
2023/05/07 02:43:24;;;;;;;3.33;2.25;;;;;;;15.25;100.00;100329.31;4928409;29;20036;-94
2023/05/07 02:46:12;;;;;;;3.97;2.75;;;;;;;15.39;100.00;100347.91;4941893;29;20056;-94
2023/05/07 02:48:42;;;;;;;4.75;2.95;;;;;;;15.05;100.00;100290.66;4915060;29;20054;-96
2023/05/07 02:51:09;;;;;;;4.45;2.63;;;;;;;15.36;100.00;100350.78;4929003;29;20107;-95
2023/05/07 02:53:47;;;;;;;3.70;2.75;;;;;;;15.03;100.00;100295.22;4927784;29;20069;-94
2023/05/07 02:56:32;;;;;;;3.42;2.47;;;;;;;15.34;100.00;100329.53;4934242;29;20047;-95
2023/05/07 02:59:04;;;;;;;5.40;2.47;;;;;;;14.93;100.00;100267.47;4905892;29;20048;-93
2023/05/07 03:01:31;;;;;;;2.53;2.20;;;;;;;15.16;100.00;100301.44;4905271;29;20130;-94
2023/05/07 03:03:58;;;;;;;3.00;2.65;;;;;;;15.34;100.00;100337.56;4930514;29;20076;-94
2023/05/07 03:06:29;;;;;;;3.05;2.13;;;;;;;15.04;100.00;100287.13;4886176;29;20044;-95
2023/05/07 03:08:59;;;;;;;3.05;2.40;;;;;;;15.22;100.00;100332.19;4901587;29;20076;-95
2023/05/07 03:11:30;;;;;;;5.57;2.33;;;;;;;15.32;100.00;100343.94;4904495;29;20454;-95
2023/05/07 03:14:07;;;;;;;3.00;2.42;;;;;;;15.34;100.00;100342.03;4906071;29;20103;-95
2023/05/07 03:16:37;;;;;;;3.83;2.70;;;;;;;15.03;100.00;100298.75;4903954;29;20044;-95
2023/05/07 03:19:14;;;;;;;3.67;2.63;;;;;;;14.81;100.00;100247.78;4901060;29;20119;-95
2023/05/07 03:21:49;;;;;;;2.45;1.98;;;;;;;15.28;100.00;100337.09;4909716;29;20039;-94
2023/05/07 03:24:19;;;;;;;3.20;2.20;;;;;;;15.27;100.00;100340.72;4941459;29;20040;-94
2023/05/07 03:26:49;;;;;;;3.58;2.60;;;;;;;15.26;100.00;100342.56;4941716;29;20054;-95
2023/05/07 03:29:19;;;;;;;4.53;2.75;;;;;;;14.95;100.00;100293.06;4957627;23;20063;-95
2023/05/07 03:31:59;;;;;;;5.03;2.65;;;;;;;14.91;100.00;100274.72;4960291;28;20114;-95
2023/05/07 03:34:45;;;;;;;3.47;2.70;;;;;;;14.78;100.00;100257.84;4959073;28;20065;-96
2023/05/07 03:37:16;;;;;;;5.78;2.63;;;;;;;14.66;100.00;100224.84;4938493;29;20091;-95
2023/05/07 03:39:49;;;;;;;3.47;2.60;;;;;;;15.28;100.00;100334.44;4919884;29;20043;-96
2023/05/07 03:42:29;;;;;;;2.95;2.50;;;;;;;15.13;100.00;100306.13;5062268;23;20138;-95
2023/05/07 03:45:11;;;;;;;4.30;2.40;;;;;;;14.92;100.00;100269.28;4934236;29;20071;-95
2023/05/07 03:47:38;;;;;;;4.63;2.58;;;;;;;14.90;100.00;100271.19;4915904;29;20039;-95
2023/05/07 03:50:21;;;;;;;3.97;2.50;;;;;;;14.99;100.00;100277.72;4918730;29;20063;-94
2023/05/07 03:53:13;;;;;;;3.00;2.70;;;;;;;14.88;100.00;100270.44;4900975;29;20078;-94
2023/05/07 03:55:46;;;;;;;3.97;2.58;;;;;;;14.94;100.00;100283.38;4931869;29;20055;-94
2023/05/07 03:58:28;;;;;;;4.50;2.45;;;;;;;15.13;100.00;100330.13;4913352;29;20043;-94
2023/05/07 04:01:10;;;;;;;5.97;2.83;;;;;;;15.10;100.00;100331.22;4941891;29;20107;-95
2023/05/07 04:03:48;;;;;;;6.70;3.05;;;;;;;15.07;100.00;100323.41;4926848;29;20071;-96
2023/05/07 04:06:17;;;;;;;5.95;3.25;;;;;;;14.77;100.00;100288.09;4953351;29;20125;-96
2023/05/07 04:08:55;;;;;;;5.53;2.45;;;;;;;15.03;100.00;100333.41;4959279;28;20039;-95
2023/05/07 04:11:40;;;;;;;3.05;2.60;;;;;;;14.52;100.00;100247.06;4942142;28;20052;-95
2023/05/07 04:14:50;;;;;;;4.75;3.08;;;;;;;14.47;100.00;100253.66;4943997;29;20098;-95
2023/05/07 04:17:41;;;;;;;3.35;2.53;;;;;;;14.81;100.00;100317.09;4925754;29;20036;-94
2023/05/07 04:20:17;;;;;;;3.33;2.60;;;;;;;14.47;100.00;100253.66;4896594;29;20040;-94
2023/05/07 04:23:08;;;;;;;3.13;2.60;;;;;;;14.42;100.00;100245.09;4916005;29;20051;-96
2023/05/07 04:25:49;;;;;;;3.83;2.67;;;;;;;14.49;100.00;100262.38;4916195;29;20048;-96
2023/05/07 04:28:29;;;;;;;4.22;3.00;;;;;;;14.66;100.00;100296.78;4933027;29;20048;-96
2023/05/07 04:31:05;;;;;;;3.78;2.65;;;;;;;14.73;100.00;100324.75;4929363;29;20055;-96
2023/05/07 04:33:45;;;;;;;4.22;2.70;;;;;;;14.68;100.00;100318.88;4904033;29;20056;-96
2023/05/07 04:36:23;;;;;;;2.80;2.53;;;;;;;15.05;100.00;100373.31;4920840;29;20048;-94
2023/05/07 04:38:53;;;;;;;5.38;2.88;;;;;;;14.79;100.00;100328.84;4920546;29;20067;-95
2023/05/07 04:41:37;;;;;;;3.92;2.80;;;;;;;15.12;100.00;100382.59;4937585;29;20098;-94
2023/05/07 04:44:09;;;;;;;3.22;2.92;;;;;;;14.62;100.00;100287.31;4919600;29;20051;-95
2023/05/07 04:46:41;;;;;;;3.45;2.75;;;;;;;14.95;100.00;100335.72;4905474;29;20044;-96
2023/05/07 04:49:13;;;;;;;3.40;2.92;;;;;;;15.21;100.00;100379.34;4906940;29;20052;-95
2023/05/07 04:51:48;;;;;;;4.18;3.13;;;;;;;15.21;100.00;100374.00;4920157;29;20044;-95
2023/05/07 04:54:25;;;;;;;5.22;2.95;;;;;;;14.91;100.00;100331.56;4936453;29;20048;-95
2023/05/07 04:56:57;;;;;;;3.92;3.20;;;;;;;14.71;100.00;100292.88;4935634;29;20119;-95
2023/05/07 04:59:32;;;;;;;3.97;3.10;;;;;;;14.87;100.00;100321.19;4919546;29;20048;-95
2023/05/07 05:02:16;;;;;;;4.63;3.33;;;;;;;15.17;100.00;100377.84;4921232;29;20104;-94
2023/05/07 05:05:01;;;;;;;3.90;3.08;;;;;;;14.66;100.00;100296.78;4919862;29;20076;-93
2023/05/07 05:07:38;;;;;;;3.67;3.10;;;;;;;15.18;100.00;100376.88;4906027;29;20048;-95
2023/05/07 05:10:26;;;;;;;3.42;3.00;;;;;;;15.21;100.00;100389.16;4936469;29;20054;-95
2023/05/07 05:13:01;;;;;;;3.78;2.97;;;;;;;15.21;100.00;100390.03;4918955;29;20048;-96
2023/05/07 05:15:31;;;;;;;4.50;2.95;;;;;;;15.23;100.00;100392.59;4903686;29;20059;-96
2023/05/07 05:18:06;;;;;;;7.20;3.90;;;;;;;14.95;100.00;100354.38;4920897;29;20123;-96
2023/05/07 05:20:45;;;;;;;6.13;3.05;;;;;;;15.28;100.00;100407.31;4905661;29;20048;-95
2023/05/07 05:23:47;;;;;;;4.45;3.15;;;;;;;15.42;100.00;100411.75;4905110;29;20170;-95
2023/05/07 05:26:35;;;;;;;3.33;2.97;;;;;;;15.45;100.00;100406.19;4921778;29;20047;-95
2023/05/07 05:29:11;;;;;;;5.35;3.40;;;;;;;15.35;100.00;100376.63;4923594;29;20040;-95
2023/05/07 05:31:57;;;;;;;4.75;3.00;;;;;;;15.66;100.00;100410.13;4937135;29;20044;-95
2023/05/07 05:34:46;;;;;;;3.33;3.03;;;;;;;15.72;100.00;100412.41;4919243;29;20040;-94
2023/05/07 05:37:38;;;;;;;4.38;3.00;;;;;;;15.76;100.00;100410.34;4919395;29;20081;-95
2023/05/07 05:40:08;;;;;;;4.38;3.20;;;;;;;15.28;100.00;100321.94;4916465;29;20075;-95
2023/05/07 05:42:42;;;;;;;4.25;3.05;;;;;;;15.90;100.00;100414.78;4901945;29;20067;-95
2023/05/07 05:45:37;;;;;;;4.82;3.55;;;;;;;15.93;100.00;100407.38;4897042;29;20045;-96
2023/05/07 05:48:09;;;;;;;4.20;3.25;;;;;;;15.38;100.00;100314.19;4881416;29;20045;-95
2023/05/07 05:50:46;;;;;;;4.32;3.42;;;;;;;15.68;100.00;100362.84;4899798;29;20051;-95
2023/05/07 05:53:40;;;;;;;5.95;3.63;;;;;;;15.86;100.00;100373.22;4901199;29;20033;-95
2023/05/07 05:56:29;;;;;;;5.50;3.25;;;;;;;15.90;100.00;100364.03;4890474;29;20062;-94
2023/05/07 05:59:26;;;;;;;6.13;3.42;;;;;;;16.28;100.00;100422.78;4966589;23;20055;-94
2023/05/07 06:02:04;;;;;;;5.57;3.25;;;;;;;16.35;100.00;100410.72;5144356;23;20067;-94
2023/05/07 06:04:54;;;;;;;4.40;3.38;;;;;;;16.16;100.00;100363.06;5422756;23;20055;-95
2023/05/07 06:07:45;;;;;;;4.78;3.20;;;;;;;15.92;100.00;100306.84;4962312;28;20032;-96
2023/05/07 06:10:48;;;;;;;3.33;3.03;;;;;;;16.38;100.00;100359.69;5064445;23;20051;-90
2023/05/07 06:13:40;;;;;;;3.15;2.67;;;;;;;16.73;100.00;100416.00;4909604;29;20056;-95
2023/05/07 06:16:30;;;;;;;4.18;3.20;;;;;;;16.78;100.00;100411.19;5716112;23;20029;31
2023/05/07 06:19:12;;;;;;;3.67;3.08;;;;;;;16.81;100.00;100411.84;4869212;29;20057;-94
2023/05/07 06:36:21;;;;;;;3.20;2.90;;;;;;;17.12;100.00;100332.00;5521345;23;20050;-91
2023/05/07 06:39:19;;;;;;;4.72;2.90;;;;;;;17.67;99.78;100419.72;4982796;23;20052;-94
2023/05/07 06:41:59;;;;;;;4.50;3.28;;;;;;;17.04;100.00;100335.22;4920936;29;20089;-95
2023/05/07 06:47:17;;;;;;;3.53;3.22;;;;;;;17.51;100.00;100429.84;5595327;23;20072;-95
2023/05/07 06:49:58;;;;;;;5.82;3.50;;;;;;;17.56;99.88;100433.03;4908486;29;20048;-96
2023/05/07 06:52:42;;;;;;;5.10;2.95;;;;;;;17.56;100.00;100430.34;5234550;23;20044;-95
2023/05/07 06:55:19;;;;;;;6.40;3.20;;;;;;;17.39;100.00;100382.59;4942643;29;20040;-96
2023/05/07 06:58:00;;;;;;;5.40;3.40;;;;;;;17.93;97.85;100425.78;4927451;29;20047;-95
2023/05/07 07:00:45;;;;;;;4.38;3.40;;;;;;;18.23;95.87;100434.13;4944239;23;20056;-96
2023/05/07 07:03:39;;;;;;;3.88;3.20;;;;;;;18.53;90.46;100404.03;4939592;29;20047;-95
2023/05/07 07:06:11;;;;;;;4.10;3.67;;;;;;;18.83;86.48;100378.41;4921357;29;20044;-95
2023/05/07 07:08:49;;;;;;;5.60;3.23;;;;;;;19.44;81.16;100421.69;4918282;29;20103;-96
2023/05/07 07:11:21;;;;;;;6.50;3.90;;;;;;;19.42;79.41;100391.41;4920846;29;20060;-96
2023/05/07 07:14:15;;;;;;;4.13;3.03;;;;;;;19.75;78.24;100431.59;4924323;29;20131;-96
2023/05/07 07:16:52;;;;;;;5.70;3.13;;;;;;;19.43;77.49;100390.44;4906969;29;20044;-96
2023/05/07 07:19:44;;;;;;;3.97;3.10;;;;;;;19.66;78.49;100431.50;4926972;29;20051;-96
2023/05/07 07:22:23;;;;;;;3.25;2.95;;;;;;;19.75;79.29;100430.72;4926254;29;20096;-94
2023/05/07 07:27:56;;;;;;;5.95;3.30;;;;;;;19.49;76.45;100435.59;5267970;23;20052;-94
2023/05/07 07:36:31;;;;;;;4.40;3.40;;;;;;;19.30;80.30;100414.78;5429893;23;20027;-93
2023/05/07 07:44:42;;;;;;;4.20;3.17;;;;;;;20.41;73.92;100436.72;4922408;29;20044;-96
2023/05/07 07:47:29;;;;;;;4.65;2.80;;;;;;;20.63;69.20;100426.59;5211834;23;20042;-94
2023/05/07 07:53:37;;;;;;;3.13;2.88;;;;;;;20.43;68.33;100391.72;5002301;23;20065;-94
2023/05/07 07:56:13;;;;;;;4.20;2.85;;;;;;;20.37;69.07;100365.34;4885595;29;20044;-95
2023/05/07 07:59:07;;;;;;;4.43;3.22;;;;;;;20.57;67.11;100446.00;4915867;29;20067;-96
2023/05/07 08:01:44;;;;;;;3.60;3.30;;;;;;;19.86;67.21;100364.34;4923128;29;20028;-95
2023/05/07 08:04:32;;;;;;;3.60;3.13;;;;;;;20.09;68.82;100442.16;4910783;29;20040;-95
2023/05/07 08:07:09;;;;;;;3.97;3.03;;;;;;;20.07;71.03;100442.28;4938831;29;20104;-96
2023/05/07 08:20:05;;;;;;;3.72;3.42;;;;;;;20.23;64.42;100441.81;5398187;23;20054;-96
2023/05/07 09:03:31;;;;;;;5.22;3.60;;;;;;;20.82;62.18;100435.75;5403136;23;20040;-95
2023/05/07 09:06:17;;;;;;;4.10;3.70;;;;;;;20.84;62.56;100417.63;4921360;29;20073;-95
2023/05/07 09:24:12;;;;;;;;;;;;;;;21.10;62.91;100436.81;4915005;29;20048;-94
2023/05/07 09:27:09;;;;;;;4.15;3.70;;;;;;;21.27;62.98;100444.25;4916010;29;19919;-96
2023/05/07 09:30:19;;;;;;;4.20;3.80;;;;;;;21.32;60.62;100409.66;4911976;29;20048;-96
2023/05/07 09:33:18;;;;;;;5.38;4.25;;;;;;;21.33;58.90;100406.84;4900720;29;20065;-95
2023/05/07 09:36:21;;;;;;;5.90;4.72;;;;;;;21.10;59.18;100405.34;4916364;29;20049;-95
2023/05/07 09:47:18;;;;;;;4.60;4.03;;;;;;;22.01;58.45;100417.63;5800237;23;20434;-93
2023/05/07 09:50:58;;;;;;;4.45;3.97;;;;;;;22.52;55.41;100425.28;5222774;23;20408;-94
2023/05/07 09:54:07;;;;;;;8.82;3.92;;;;;;;22.70;53.98;100422.66;5026723;23;20057;-95
2023/05/07 10:07:44;;;;;;;5.72;4.07;;;;;;;22.67;53.36;100426.50;5255474;21;25468383;-95
2023/05/07 10:10:46;;;;;;;5.45;4.10;;;;;;;22.25;52.70;100353.25;6362847;22;20064;-94
2023/05/07 10:13:39;;;;;;;4.28;3.95;;;;;;;22.67;52.70;100423.78;6364387;22;20091;-95
2023/05/07 10:19:58;;;;;;;5.40;4.85;;;;;;;22.26;53.46;100395.41;6347192;22;20041;-95
2023/05/07 10:23:25;;;;;;;6.68;4.15;;;;;;;21.94;55.47;100371.47;6342816;22;20036;-94
2023/05/07 10:30:29;;;;;;;;;;;;;;;;;;;;;
2023/05/07 10:36:34;;;;;;;6.20;4.05;;;;;;;22.38;53.10;100366.41;6310258;22;20015;-96
2023/05/07 10:45:17;;;;;;;3.72;3.33;;;;;;;23.03;52.13;100415.81;6246744;23;20072;-96
2023/05/07 10:48:30;;;;;;;3.88;3.50;;;;;;;22.71;52.97;100327.16;6189096;23;20040;-96
2023/05/07 11:25:20;;;;;;;4.65;3.80;;;;;;;23.95;49.02;100404.72;6265987;22;20048;-95
2023/05/07 11:28:10;;;;;;;4.10;3.80;;;;;;;23.63;49.38;100337.72;6246567;22;20015;-95
2023/05/07 11:31:08;;;;;;;5.40;3.88;;;;;;;23.83;49.16;100330.28;6292897;22;20019;-96
2023/05/07 11:34:23;;;;;;;4.20;3.80;;;;;;;24.54;48.90;100395.00;6250629;22;20023;-95
2023/05/07 11:37:20;;;;;;;6.15;3.60;;;;;;;24.96;46.30;100384.19;6272396;22;20035;-96
2023/05/07 11:40:06;;;;;;;4.55;3.58;;;;;;;24.75;45.56;100319.59;6272065;22;20016;-95
2023/05/07 11:42:53;;;;;;;6.55;4.00;;;;;;;25.06;46.30;100380.31;6299184;22;20059;-94
2023/05/07 11:45:42;;;;;;;3.95;3.13;;;;;;;25.04;44.42;100371.50;6249780;22;20026;-94
2023/05/07 11:48:24;;;;;;;3.47;3.20;;;;;;;24.94;45.19;100372.66;6254925;22;20046;-94
2023/05/07 11:51:26;;;;;;;3.25;2.95;;;;;;;24.87;45.24;100371.63;6292653;22;20046;-94
2023/05/07 11:54:22;;;;;;;3.17;2.55;;;;;;;24.66;44.03;100332.28;6271282;22;20012;-95
2023/05/07 11:56:56;;;;;;;3.95;2.88;;;;;;;24.90;42.77;100372.09;6241320;22;20015;-95
2023/05/07 11:59:49;;;;;;;3.40;2.55;;;;;;;24.85;42.70;100369.06;6268464;22;20047;-94
2023/05/07 12:02:32;;;;;;;2.90;2.70;;;;;;;24.77;44.21;100364.47;6293137;22;20025;-95
2023/05/07 12:05:25;;;;;;;2.90;2.60;;;;;;;24.30;43.96;100277.47;6296284;22;20467;-96
2023/05/07 12:08:24;;;;;;;2.50;2.28;;;;;;;24.68;41.79;100346.50;6297566;22;20022;-95
2023/05/07 12:17:33;;;;;;;2.75;1.90;;;;;;;;;;6295799;22;20023;-94
2023/05/07 12:20:24;;;;;;;2.00;1.80;;;;;;;25.12;40.29;100357.13;6207030;23;20028;-94
2023/05/07 12:22:56;;;;;;;2.13;1.92;;;;;;;25.03;40.27;100358.13;6199653;23;20043;-95
2023/05/07 12:25:50;;;;;;;2.95;1.80;;;;;;;24.94;40.24;100351.84;6204944;23;20069;-95
2023/05/07 12:28:22;;;;;;;2.70;1.98;;;;;;;25.09;40.34;100347.47;6205914;23;20036;-95
2023/05/07 12:31:14;;;;;;;2.05;1.73;;;;;;;25.13;39.43;100350.72;6197991;23;20017;-95
2023/05/07 12:34:10;;;;;;;2.83;1.60;;;;;;;24.68;38.40;100276.09;6223169;22;20017;-94
2023/05/07 12:36:41;;;;;;;2.50;1.65;;;;;;;24.99;39.15;100359.47;6210800;23;20024;-95
2023/05/07 12:39:29;;;;;;;1.90;1.73;;;;;;;25.03;38.76;100361.66;6229072;23;20024;-94
2023/05/07 12:42:04;;;;;;;3.20;1.40;;;;;;;24.98;37.31;100355.94;6209473;23;20049;-96
2023/05/07 12:44:36;;;;;;;2.00;1.52;;;;;;;24.93;37.10;100350.13;6267203;22;20008;-95
2023/05/07 12:47:12;;;;;;;2.88;1.80;;;;;;;24.95;38.12;100348.13;6366226;22;20011;-94
2023/05/07 12:50:11;;;;;;;2.72;1.48;;;;;;;25.06;38.98;100341.53;6338300;22;20016;-96
2023/05/07 12:55:50;;;;;;;2.30;2.08;;;;;;;25.32;38.30;100320.59;6247371;22;20421;-95
2023/05/07 12:58:41;;;;;;;2.38;2.00;;;;;;;25.28;38.88;100283.97;6268441;22;20028;-94
2023/05/07 13:01:39;;;;;;;3.00;2.53;;;;;;;25.64;40.09;100313.50;6257446;22;20074;-92
2023/05/07 13:07:04;;;;;;;2.25;2.10;;;;;;;25.61;39.25;100301.09;6265465;22;20468;-94
2023/05/07 13:09:52;;;;;;;5.60;2.20;;;;;;;25.59;39.12;100332.94;6251185;22;20016;-95
2023/05/07 13:12:29;;;;;;;4.72;2.58;;;;;;;25.51;39.15;100335.63;6201015;22;20035;-93
2023/05/07 13:15:11;;;;;;;2.50;1.95;;;;;;;25.49;39.77;100319.56;6224815;22;20024;-93
2023/05/07 13:17:52;;;;;;;1.80;1.70;;;;;;;24.93;38.42;100251.75;6250621;22;20018;-95
2023/05/07 13:20:30;;;;;;;2.92;1.48;;;;;;;24.66;37.50;100261.88;6227085;22;20126;-94
2023/05/07 13:23:14;;;;;;;3.42;2.10;;;;;;;24.61;38.31;100280.47;6256131;22;20007;-94
2023/05/07 13:26:00;;;;;;;4.00;2.55;;;;;;;24.41;41.03;100244.69;6323380;22;20007;-96
2023/05/07 13:28:52;;;;;;;3.72;2.92;;;;;;;24.63;43.06;100272.19;6324407;22;20010;-94
2023/05/07 13:31:26;;;;;;;3.58;3.17;;;;;;;24.73;43.67;100299.94;6367645;22;20011;-95
2023/05/07 13:34:05;;;;;;;4.22;2.92;;;;;;;24.63;44.20;100302.81;6319976;22;20003;-95
2023/05/07 13:36:57;;;;;;;3.72;2.90;;;;;;;24.61;44.11;100322.94;6345711;22;20022;-95
2023/05/07 13:39:46;;;;;;;4.10;2.90;;;;;;;24.61;44.63;100312.94;6297627;22;20019;-95
2023/05/07 13:42:39;;;;;;;3.33;3.03;;;;;;;24.67;44.80;100312.31;6365427;22;20077;-96
2023/05/07 13:45:29;;;;;;;3.95;2.92;;;;;;;24.58;44.60;100290.75;6317886;22;20006;-95
2023/05/07 13:48:01;;;;;;;3.00;2.72;;;;;;;24.82;43.11;100307.09;6367576;22;20006;-95
2023/05/07 13:50:33;;;;;;;3.58;2.95;;;;;;;24.69;43.21;100293.19;6330419;22;20018;-94
2023/05/07 13:53:33;;;;;;;3.25;2.92;;;;;;;24.67;43.37;100282.53;6365061;22;20007;-95
2023/05/07 13:56:04;;;;;;;3.78;2.58;;;;;;;24.78;44.36;100286.75;6366192;22;20011;-94
2023/05/07 13:58:49;;;;;;;3.20;2.90;;;;;;;24.63;43.72;100247.81;6366909;22;20007;-96
2023/05/07 14:01:35;;;;;;;2.90;2.60;;;;;;;24.77;43.60;100269.66;6343948;22;20008;-95
2023/05/07 14:04:10;;;;;;;2.80;2.60;;;;;;;24.76;42.61;100269.84;6324769;22;20031;-96
2023/05/07 14:06:57;;;;;;;3.20;2.35;;;;;;;24.92;42.40;100306.94;6324060;22;20022;-95
2023/05/07 14:09:32;;;;;;;2.70;2.50;;;;;;;24.39;43.19;100229.66;6254816;22;20050;-96
2023/05/07 14:12:22;;;;;;;3.40;2.42;;;;;;;24.60;42.36;100270.63;6312703;22;20011;-95
2023/05/07 14:15:00;;;;;;;3.53;2.20;;;;;;;24.80;43.02;100303.69;6335950;22;20007;-96
2023/05/07 14:17:55;;;;;;;4.68;2.60;;;;;;;24.55;42.79;100262.19;6368886;22;20010;-95
2023/05/07 14:20:38;;;;;;;4.13;2.70;;;;;;;24.61;42.05;100294.00;6390692;22;20019;-96
2023/05/07 14:26:12;;;;;;;2.85;2.10;;;;;;;24.54;41.78;100302.97;6370505;22;20013;-95
2023/05/07 14:28:47;;;;;;;6.85;2.15;;;;;;;24.45;42.29;100293.94;6368048;22;20041;-96
2023/05/07 14:31:22;;;;;;;2.50;2.30;;;;;;;24.45;43.09;100293.94;6371367;22;20061;-96
2023/05/07 14:34:06;;;;;;;3.88;2.72;;;;;;;24.32;43.03;100272.75;6395581;22;20014;-95
2023/05/07 14:36:34;;;;;;;2.50;2.30;;;;;;;24.08;42.88;100240.16;6390846;22;20014;-95
2023/05/07 14:39:03;;;;;;;2.78;2.30;;;;;;;23.88;43.16;100217.94;6337336;22;20064;-95
2023/05/07 14:41:33;;;;;;;4.22;2.38;;;;;;;24.27;42.68;100266.13;6336448;22;20006;-95
2023/05/07 14:44:03;;;;;;;2.90;2.45;;;;;;;24.38;42.79;100273.97;6388197;22;20014;-93
2023/05/07 14:49:21;;;;;;;2.60;2.40;;;;;;;24.57;42.88;100289.06;6301948;22;20026;-94
2023/05/07 14:51:48;;;;;;;2.65;2.20;;;;;;;24.35;42.24;100264.31;6272731;22;20039;-95
2023/05/07 14:54:43;;;;;;;3.35;2.20;;;;;;;24.45;42.75;100307.47;6248088;22;20019;-93
2023/05/07 14:57:34;;;;;;;2.65;2.45;;;;;;;24.13;42.88;100263.00;6249045;22;20023;-95
2023/05/07 15:00:30;;;;;;;4.30;2.60;;;;;;;24.22;43.14;100290.09;6215471;23;20056;-95
2023/05/07 15:03:07;;;;;;;5.30;2.10;;;;;;;24.25;43.02;100306.88;6237415;23;20016;-93
2023/05/07 15:05:44;;;;;;;2.33;2.10;;;;;;;24.21;43.58;100312.75;6244604;23;20008;-93
2023/05/07 15:08:12;;;;;;;2.10;1.98;;;;;;;24.10;42.85;100294.94;6218137;23;20016;-95
2023/05/07 15:10:55;;;;;;;2.25;2.10;;;;;;;24.16;42.77;100309.69;6235150;23;20020;-94
2023/05/07 15:13:26;;;;;;;2.03;1.92;;;;;;;24.12;42.41;100318.13;6252709;22;20151;-92
2023/05/07 15:22:02;;;;;;;4.35;2.22;;;;;;;23.68;42.67;100324.59;6263837;22;20024;-92
2023/05/07 15:25:33;;;;;;;1.95;1.65;;;;;;;23.54;43.21;100331.44;6264381;22;20063;-94
2023/05/07 15:30:51;;;;;;;3.30;2.10;;;;;;;23.21;43.80;100318.59;6325684;22;20032;-94
2023/05/07 15:33:23;;;;;;;2.95;2.75;;;;;;;23.02;44.44;100288.03;6304906;22;20023;-95
2023/05/07 15:36:06;;;;;;;5.15;2.50;;;;;;;22.99;44.45;100298.28;6336655;22;20007;-92
2023/05/07 15:38:33;;;;;;;2.85;2.65;;;;;;;23.02;44.98;100315.03;6336301;22;20070;-95
2023/05/07 15:41:26;;;;;;;3.33;2.47;;;;;;;23.15;45.10;100343.53;6335936;22;20046;-95
2023/05/07 15:44:05;;;;;;;2.92;2.20;;;;;;;22.99;45.19;100323.44;6312421;22;20003;-94
2023/05/07 15:46:37;;;;;;;3.80;1.90;;;;;;;23.10;44.50;100354.81;6309880;22;19999;-94